Time;durP1;ratioP1;P1;durP2;ratioP2;P2;SDS_P1;SDS_P2;PMS_P1;PMS_P2;Temp;Humidity;BMP_temperature;BMP_pressure;BME280_temperature;BME280_humidity;BME280_pressure;Samples;Min_cycle;Max_cycle;Signal;HPM_P1;HPM_P2
2021/06/21 00:00:47;;;;;;;10.80;9.90;;;25.40;99.90;;;;;;4993485;28;20453;-78
2021/06/21 00:03:14;;;;;;;10.97;10.07;;;25.40;99.90;;;;;;4993802;28;20966;-78
2021/06/21 00:05:41;;;;;;;11.57;10.60;;;25.40;99.90;;;;;;4993751;28;20490;-78
2021/06/21 00:08:07;;;;;;;11.63;9.60;;;25.40;99.90;;;;;;4993530;28;20505;-78
2021/06/21 00:10:34;;;;;;;10.70;9.73;;;25.30;99.90;;;;;;4993564;28;20807;-78
2021/06/21 00:13:01;;;;;;;11.30;10.30;;;25.30;99.90;;;;;;5010664;28;20543;-78
2021/06/21 00:15:29;;;;;;;11.77;10.50;;;25.20;99.90;;;;;;5012879;28;20488;-78
2021/06/21 00:17:56;;;;;;;11.90;10.80;;;25.30;99.90;;;;;;5012726;28;20999;-78
2021/06/21 00:20:24;;;;;;;12.10;11.00;;;25.20;99.90;;;;;;5013116;28;20500;-78
2021/06/21 00:22:51;;;;;;;15.53;12.70;;;25.10;99.90;;;;;;5012989;28;20489;-78
2021/06/21 00:25:19;;;;;;;17.30;12.27;;;25.10;99.90;;;;;;5012975;28;20818;-78
2021/06/21 00:27:47;;;;;;;12.57;11.40;;;25.10;99.90;;;;;;5012814;28;20493;-78
2021/06/21 00:30:16;;;;;;;12.97;11.87;;;25.00;99.90;;;;;;5012811;28;20482;-78
2021/06/21 00:32:45;;;;;;;13.57;12.27;;;24.90;99.90;;;;;;5012928;28;20454;-78
2021/06/21 00:35:13;;;;;;;13.13;11.93;;;24.80;99.90;;;;;;5012891;28;20528;-78
2021/06/21 00:37:39;;;;;;;14.13;12.23;;;24.70;99.90;;;;;;5012763;28;20549;-78
2021/06/21 00:40:09;;;;;;;13.10;12.00;;;24.70;99.90;;;;;;5012766;28;20493;-77
2021/06/21 00:42:37;;;;;;;13.43;12.23;;;24.70;99.90;;;;;;5012626;28;20545;-77
2021/06/21 00:45:05;;;;;;;12.80;11.70;;;24.70;99.90;;;;;;5012622;28;20466;-78
2021/06/21 00:47:31;;;;;;;12.67;11.47;;;24.60;99.90;;;;;;5012734;28;20486;-78
2021/06/21 00:49:59;;;;;;;13.57;12.40;;;24.50;99.90;;;;;;5012651;28;20520;-78
2021/06/21 00:52:26;;;;;;;15.67;12.80;;;24.50;99.90;;;;;;5012672;28;20871;-78
2021/06/21 00:55:00;;;;;;;12.87;11.60;;;24.40;99.90;;;;;;5012711;28;20498;-77
2021/06/21 00:57:28;;;;;;;13.80;12.43;;;24.40;99.90;;;;;;5012789;28;20454;-77
2021/06/21 00:59:57;;;;;;;14.20;12.77;;;24.30;99.90;;;;;;5012759;28;20454;-78
2021/06/21 01:02:25;;;;;;;13.83;12.47;;;24.30;99.90;;;;;;5012812;28;20486;-77
2021/06/21 01:04:51;;;;;;;14.40;12.90;;;24.20;99.90;;;;;;5012632;28;20477;-77
2021/06/21 01:07:19;;;;;;;12.27;11.17;;;24.20;99.90;;;;;;5012445;28;20508;-77
2021/06/21 01:09:47;;;;;;;14.93;11.90;;;24.20;99.90;;;;;;5012436;28;20454;-78
2021/06/21 01:12:24;;;;;;;13.30;11.90;;;24.20;99.90;;;;;;5001493;28;20501;-77
2021/06/21 01:14:58;;;;;;;15.53;14.03;;;24.10;99.90;;;;;;4992927;28;20975;-78
2021/06/21 01:17:31;;;;;;;11.53;10.43;;;24.10;99.90;;;;;;4993697;28;20577;-77
2021/06/21 01:20:42;;;;;;;12.47;11.40;;;24.10;99.90;;;;;;4996343;28;20542;-78
2021/06/21 01:23:51;;;;;;;11.97;10.93;;;24.10;99.90;;;;;;4996393;28;20451;-77
2021/06/21 01:26:20;;;;;;;11.87;10.87;;;24.00;99.90;;;;;;4996246;28;20491;-77
2021/06/21 01:29:04;;;;;;;11.70;10.60;;;24.10;99.90;;;;;;4996313;28;20451;-78
2021/06/21 01:31:48;;;;;;;12.03;10.83;;;24.10;99.90;;;;;;4996166;28;20942;-77
2021/06/21 01:34:18;;;;;;;11.90;11.00;;;24.10;99.90;;;;;;4996158;28;20502;-78
2021/06/21 01:36:53;;;;;;;13.10;11.83;;;24.10;99.90;;;;;;4995934;28;20482;-77
2021/06/21 01:39:21;;;;;;;14.00;11.57;;;24.10;99.90;;;;;;4996171;28;20493;-78
2021/06/21 01:41:50;;;;;;;12.40;10.67;;;24.10;99.90;;;;;;4996099;28;20451;-77
2021/06/21 01:44:20;;;;;;;12.37;10.60;;;24.10;99.90;;;;;;4995964;28;20451;-77
2021/06/21 01:46:50;;;;;;;11.57;10.50;;;24.10;99.90;;;;;;4995980;28;20529;-77
2021/06/21 01:49:23;;;;;;;13.83;10.80;;;24.10;99.90;;;;;;5006231;28;20537;-78
2021/06/21 01:51:54;;;;;;;13.47;12.03;;;24.00;99.90;;;;;;5015758;28;20465;-77
2021/06/21 01:54:24;;;;;;;12.27;10.60;;;24.00;99.90;;;;;;5015411;28;20450;-77
2021/06/21 01:56:52;;;;;;;12.83;11.77;;;23.90;99.90;;;;;;5015362;28;20482;-78
2021/06/21 01:59:18;;;;;;;13.90;12.03;;;24.00;99.90;;;;;;5015163;28;20494;-77
2021/06/21 02:01:47;;;;;;;12.87;11.50;;;23.90;99.90;;;;;;5015109;28;20890;-77
2021/06/21 02:04:15;;;;;;;11.97;10.97;;;23.90;99.90;;;;;;5015132;28;20485;-77
2021/06/21 02:06:45;;;;;;;11.43;10.53;;;23.80;99.90;;;;;;5015104;28;20465;-77
2021/06/21 02:09:13;;;;;;;13.60;12.40;;;23.90;99.90;;;;;;5015131;28;20509;-77
2021/06/21 02:11:40;;;;;;;12.63;11.50;;;23.90;99.90;;;;;;5015029;28;20834;-77
2021/06/21 02:14:07;;;;;;;12.07;10.87;;;24.00;99.90;;;;;;5014780;28;20449;-78
2021/06/21 02:16:35;;;;;;;12.50;11.30;;;24.00;99.90;;;;;;5014676;28;20525;-77
2021/06/21 02:19:02;;;;;;;13.43;12.17;;;24.00;99.90;;;;;;5014687;28;20998;-78
2021/06/21 02:21:29;;;;;;;18.40;12.30;;;24.00;99.90;;;;;;5014994;28;20454;-77
2021/06/21 02:23:57;;;;;;;13.43;12.33;;;24.10;99.90;;;;;;5014878;28;20837;-77
2021/06/21 02:26:26;;;;;;;13.40;12.30;;;24.20;99.90;;;;;;5015017;28;20561;-78
2021/06/21 02:28:54;;;;;;;14.97;13.70;;;24.10;99.90;;;;;;5013503;28;20493;-77
2021/06/21 02:31:21;;;;;;;13.03;11.73;;;24.00;99.90;;;;;;5014829;28;20482;-78
2021/06/21 02:33:48;;;;;;;14.60;13.30;;;23.80;99.90;;;;;;5014728;28;20485;-77
2021/06/21 02:36:15;;;;;;;13.43;12.10;;;23.70;99.90;;;;;;5014560;28;21198;-77
2021/06/21 02:38:42;;;;;;;15.03;13.73;;;23.60;99.90;;;;;;5014608;28;20486;-77
2021/06/21 02:41:10;;;;;;;14.93;13.57;;;23.40;99.90;;;;;;5014408;28;20482;-77
2021/06/21 02:43:36;;;;;;;14.77;13.40;;;23.40;99.90;;;;;;5014319;28;20505;-77
2021/06/21 02:46:04;;;;;;;15.63;14.20;;;23.30;99.90;;;;;;5014304;28;20961;-77
2021/06/21 02:48:31;;;;;;;18.17;16.20;;;23.20;99.90;;;;;;5014316;28;20957;-77
2021/06/21 02:50:57;;;;;;;16.03;14.63;;;23.10;99.90;;;;;;5014295;28;20489;-77
2021/06/21 02:53:32;;;;;;;18.63;15.03;;;23.00;99.90;;;;;;5014176;28;21007;-77
2021/06/21 02:56:07;;;;;;;16.43;14.93;;;22.80;99.90;;;;;;5014175;28;20457;-77
2021/06/21 02:58:38;;;;;;;19.37;15.80;;;22.80;99.90;;;;;;5014513;28;20460;-77
2021/06/21 03:01:07;;;;;;;18.03;16.30;;;22.80;99.90;;;;;;5014502;28;20482;-77
2021/06/21 03:03:36;;;;;;;17.93;16.23;;;22.90;99.90;;;;;;5014357;28;20508;-77
2021/06/21 03:06:05;;;;;;;17.77;16.27;;;22.90;99.90;;;;;;5014172;28;20462;-77
2021/06/21 03:08:33;;;;;;;16.07;14.87;;;22.90;99.90;;;;;;5013983;28;20501;-77
2021/06/21 03:11:00;;;;;;;15.97;14.67;;;23.00;99.90;;;;;;5013066;28;20512;-77
2021/06/21 03:13:28;;;;;;;15.50;14.30;;;23.00;99.90;;;;;;4994547;28;20497;-77
2021/06/21 03:15:58;;;;;;;16.63;15.03;;;23.00;99.90;;;;;;4993974;28;20450;-78
2021/06/21 03:18:26;;;;;;;18.10;16.30;;;23.10;99.90;;;;;;4994206;28;20568;-77
2021/06/21 03:20:53;;;;;;;17.50;16.07;;;23.20;99.90;;;;;;4994062;28;20481;-77
2021/06/21 03:23:23;;;;;;;15.67;14.27;;;23.20;99.90;;;;;;4994312;28;20539;-78
2021/06/21 03:25:52;;;;;;;16.67;15.27;;;23.30;99.90;;;;;;4994056;28;20455;-77
2021/06/21 03:28:19;;;;;;;17.30;15.80;;;23.40;99.90;;;;;;4994123;28;20451;-77
2021/06/21 03:30:49;;;;;;;15.17;13.77;;;23.50;99.90;;;;;;4993875;28;20614;-77
2021/06/21 03:33:17;;;;;;;16.07;14.67;;;23.70;99.90;;;;;;4993991;28;20447;-78
2021/06/21 03:35:43;;;;;;;15.53;14.03;;;23.80;99.90;;;;;;4994047;28;20486;-77
2021/06/21 03:38:12;;;;;;;15.83;14.43;;;23.90;99.90;;;;;;4993881;28;20893;-77
2021/06/21 03:40:38;;;;;;;15.43;14.13;;;24.00;99.90;;;;;;4993361;28;20455;-78
2021/06/21 03:43:05;;;;;;;14.50;13.20;;;24.10;99.90;;;;;;4993906;28;20490;-77
2021/06/21 03:45:32;;;;;;;16.23;14.33;;;24.10;99.90;;;;;;4993691;28;20487;-78
2021/06/21 03:47:59;;;;;;;14.47;13.30;;;24.10;99.90;;;;;;4993694;28;20490;-78
2021/06/21 03:50:27;;;;;;;13.40;12.30;;;24.10;99.90;;;;;;4993875;28;20482;-78
2021/06/21 03:52:53;;;;;;;12.60;11.53;;;24.10;99.90;;;;;;4993855;28;20883;-77
2021/06/21 03:55:20;;;;;;;12.50;11.50;;;24.10;99.90;;;;;;4993667;28;20459;-77
2021/06/21 03:57:48;;;;;;;12.53;11.47;;;24.20;99.90;;;;;;4993452;28;20531;-77
2021/06/21 04:00:17;;;;;;;11.70;10.57;;;24.20;99.90;;;;;;4993636;28;20458;-77
2021/06/21 04:02:43;;;;;;;9.33;8.67;;;24.20;99.90;;;;;;4993465;28;20452;-77
2021/06/21 04:05:11;;;;;;;10.53;9.43;;;24.20;99.90;;;;;;4993609;28;20482;-77
2021/06/21 04:07:40;;;;;;;10.57;9.50;;;24.20;99.90;;;;;;4993454;28;20966;-77
2021/06/21 04:10:08;;;;;;;9.37;8.57;;;24.30;99.90;;;;;;4993487;28;20503;-77
2021/06/21 04:12:36;;;;;;;7.23;6.60;;;24.30;99.90;;;;;;5007304;28;20481;-77
2021/06/21 04:15:04;;;;;;;8.93;6.67;;;24.30;99.90;;;;;;5012941;28;20450;-77
2021/06/21 04:17:31;;;;;;;8.00;7.30;;;24.30;99.90;;;;;;5012645;28;21139;-78
2021/06/21 04:19:57;;;;;;;10.13;7.20;;;24.30;99.90;;;;;;5013087;28;20490;-77
2021/06/21 04:22:24;;;;;;;9.63;8.83;;;24.30;99.90;;;;;;5013088;28;20653;-77
2021/06/21 04:24:52;;;;;;;8.63;7.80;;;24.40;99.90;;;;;;5012848;28;20489;-77
2021/06/21 04:27:19;;;;;;;11.53;10.30;;;24.40;99.90;;;;;;5012861;28;20481;-77
2021/06/21 04:29:45;;;;;;;12.30;11.30;;;24.40;99.90;;;;;;5012880;28;20486;-77
2021/06/21 04:32:12;;;;;;;13.00;11.87;;;24.50;99.90;;;;;;5012932;28;20482;-77
2021/06/21 04:34:38;;;;;;;13.63;12.43;;;24.50;99.90;;;;;;5012829;28;20985;-77
2021/06/21 04:37:06;;;;;;;14.20;12.80;;;24.40;99.90;;;;;;5012830;28;20573;-77
2021/06/21 04:39:32;;;;;;;13.83;12.63;;;24.40;99.90;;;;;;5012886;28;20508;-77
2021/06/21 04:42:00;;;;;;;19.10;11.77;;;24.40;99.90;;;;;;5012649;28;20489;-78
2021/06/21 04:44:27;;;;;;;13.07;11.80;;;24.30;99.90;;;;;;5012727;28;20519;-77
2021/06/21 04:46:54;;;;;;;12.43;11.23;;;24.30;99.90;;;;;;5012915;28;20482;-77
2021/06/21 04:49:20;;;;;;;14.67;11.30;;;24.30;99.90;;;;;;5012889;28;20486;-77
2021/06/21 04:51:47;;;;;;;11.13;10.03;;;24.30;99.90;;;;;;5013063;28;20512;-77
2021/06/21 04:54:15;;;;;;;11.07;9.93;;;24.20;99.90;;;;;;5016538;28;20507;-77
2021/06/21 04:56:41;;;;;;;13.60;10.23;;;24.20;99.90;;;;;;5016217;28;20505;-77
2021/06/21 04:59:09;;;;;;;11.07;9.97;;;24.20;99.90;;;;;;5016538;28;20457;-77
2021/06/21 05:01:36;;;;;;;11.77;10.70;;;24.10;99.90;;;;;;5016406;28;20482;-77
2021/06/21 05:04:04;;;;;;;11.50;10.40;;;24.10;99.90;;;;;;5016391;28;20453;-77
2021/06/21 05:06:32;;;;;;;15.90;10.37;;;24.00;99.90;;;;;;5016191;28;20821;-77
2021/06/21 05:08:59;;;;;;;10.90;9.33;;;24.10;99.90;;;;;;5016220;28;20873;-77
2021/06/21 05:11:25;;;;;;;13.17;9.60;;;24.20;99.90;;;;;;5011567;28;20530;-77
2021/06/21 05:13:52;;;;;;;9.77;8.93;;;24.20;99.90;;;;;;4996606;28;20490;-77
2021/06/21 05:16:20;;;;;;;10.70;9.67;;;24.40;99.90;;;;;;4996341;28;20462;-77
2021/06/21 05:18:46;;;;;;;12.13;9.83;;;24.40;99.90;;;;;;4996392;28;20494;-77
2021/06/21 05:21:13;;;;;;;11.33;10.33;;;24.40;99.90;;;;;;4996158;28;20693;-77
2021/06/21 05:23:39;;;;;;;9.57;8.83;;;24.30;99.90;;;;;;4996263;28;20451;-77
2021/06/21 05:26:06;;;;;;;10.20;9.20;;;24.20;99.90;;;;;;4996524;28;20493;-77
2021/06/21 05:28:33;;;;;;;11.33;10.33;;;24.30;99.90;;;;;;4996248;28;20957;-77
2021/06/21 05:31:00;;;;;;;10.60;9.80;;;24.40;99.90;;;;;;4996322;28;20450;-77
2021/06/21 05:33:29;;;;;;;10.67;9.60;;;24.50;99.90;;;;;;4996139;28;20490;-77
2021/06/21 05:35:56;;;;;;;11.53;10.53;;;24.60;99.90;;;;;;4996212;28;20879;-77
2021/06/21 05:38:23;;;;;;;13.13;11.10;;;24.70;99.90;;;;;;4995932;28;20475;-77
2021/06/21 05:40:49;;;;;;;11.57;10.40;;;24.90;99.90;;;;;;4996219;28;20485;-78
2021/06/21 05:43:16;;;;;;;11.13;10.17;;;25.20;99.90;;;;;;4995932;28;20547;-77
2021/06/21 05:45:42;;;;;;;13.00;11.00;;;25.50;99.90;;;;;;4996031;28;20509;-77
2021/06/21 05:48:10;;;;;;;11.73;10.73;;;25.60;99.90;;;;;;4995881;28;20486;-77
2021/06/21 05:50:38;;;;;;;16.03;9.97;;;25.70;99.90;;;;;;4995904;28;20479;-77
2021/06/21 05:53:05;;;;;;;11.93;10.50;;;25.90;99.90;;;;;;4995658;28;20810;-77
2021/06/21 05:55:32;;;;;;;12.10;11.00;;;26.00;99.90;;;;;;4995887;28;20475;-77
2021/06/21 05:58:00;;;;;;;12.10;11.20;;;26.00;99.90;;;;;;4995583;28;20585;-77
2021/06/21 06:00:26;;;;;;;11.53;10.33;;;25.90;99.90;;;;;;4995741;28;20447;-77
2021/06/21 06:02:53;;;;;;;11.73;10.30;;;25.90;99.90;;;;;;4995398;28;20545;-77
2021/06/21 06:05:20;;;;;;;12.43;10.97;;;25.90;99.90;;;;;;4995585;28;20518;-78
2021/06/21 06:07:48;;;;;;;11.07;10.07;;;26.30;99.90;;;;;;4995472;28;21021;-78
2021/06/21 06:10:16;;;;;;;12.00;10.37;;;26.70;99.90;;;;;;4995704;28;20876;-77
2021/06/21 06:12:42;;;;;;;10.17;9.30;;;26.90;99.90;;;;;;5010302;28;20489;-77
2021/06/21 06:15:11;;;;;;;11.47;10.47;;;27.40;99.90;;;;;;5014986;28;20474;-77
2021/06/21 06:17:38;;;;;;;11.53;10.50;;;27.90;99.90;;;;;;5014595;28;20489;-77
2021/06/21 06:20:06;;;;;;;12.17;10.93;;;28.40;99.90;;;;;;5014813;28;20489;-78
2021/06/21 06:22:32;;;;;;;10.83;9.60;;;28.70;99.90;;;;;;5014884;28;20493;-78
2021/06/21 06:25:01;;;;;;;12.07;10.77;;;29.20;99.90;;;;;;5014930;28;20484;-78
2021/06/21 06:27:27;;;;;;;9.20;8.40;;;29.60;99.90;;;;;;5014775;28;20817;-78
2021/06/21 06:29:54;;;;;;;11.80;9.60;;;30.00;99.90;;;;;;5014807;28;20877;-78
2021/06/21 06:32:20;;;;;;;10.87;9.70;;;30.30;99.90;;;;;;5014635;28;20451;-78
2021/06/21 06:34:47;;;;;;;11.97;10.90;;;30.60;99.90;;;;;;5014472;28;20493;-78
2021/06/21 06:37:13;;;;;;;17.53;9.60;;;30.90;99.90;;;;;;5014614;28;20505;-78
2021/06/21 06:39:40;;;;;;;9.97;9.17;;;31.00;99.90;;;;;;5014676;28;20458;-78
2021/06/21 06:42:09;;;;;;;10.80;9.77;;;31.60;99.90;;;;;;5014500;28;20450;-78
2021/06/21 06:44:37;;;;;;;13.70;11.50;;;32.10;99.90;;;;;;5014391;28;20942;-78
2021/06/21 06:47:04;;;;;;;10.10;9.20;;;32.40;99.90;;;;;;5014224;28;20453;-78
2021/06/21 06:49:31;;;;;;;13.00;8.77;;;32.60;99.90;;;;;;5014560;28;20481;-78
2021/06/21 06:51:57;;;;;;;11.23;9.10;;;32.40;99.90;;;;;;5014399;28;20509;-78
2021/06/21 06:54:26;;;;;;;9.37;8.47;;;32.50;99.90;;;;;;5014421;28;20470;-78
2021/06/21 06:56:59;;;;;;;10.50;9.57;;;32.50;99.90;;;;;;5014280;28;20450;-78
2021/06/21 06:59:27;;;;;;;9.90;9.10;;;32.50;99.90;;;;;;5014297;28;20450;-78
2021/06/21 07:01:55;;;;;;;11.90;9.50;;;32.50;99.90;;;;;;5014398;28;20496;-78
2021/06/21 07:04:22;;;;;;;10.97;9.90;;;32.60;99.90;;;;;;5014148;28;20501;-79
2021/06/21 07:06:49;;;;;;;9.83;9.03;;;32.70;99.90;;;;;;5014191;28;20446;-79
2021/06/21 07:09:15;;;;;;;9.20;8.40;;;32.90;99.90;;;;;;5013960;28;20485;-78
2021/06/21 07:11:42;;;;;;;10.90;10.00;;;33.10;99.90;;;;;;5007218;28;20443;-78
2021/06/21 07:14:09;;;;;;;10.80;9.90;;;33.00;99.90;;;;;;4994063;28;20697;-78
2021/06/21 07:16:37;;;;;;;9.63;8.73;;;32.60;99.90;;;;;;4993630;28;20479;-78
2021/06/21 07:19:04;;;;;;;11.73;10.60;;;32.30;99.90;;;;;;4994239;28;20537;-79
2021/06/21 07:21:32;;;;;;;11.70;10.43;;;32.00;99.90;;;;;;4994260;28;20490;-79
2021/06/21 07:23:59;;;;;;;10.57;9.50;;;31.90;99.90;;;;;;4994157;28;20546;-78
2021/06/21 07:26:26;;;;;;;10.17;9.40;;;32.10;99.90;;;;;;4994105;28;20451;-78
2021/06/21 07:28:52;;;;;;;10.47;9.47;;;32.50;99.90;;;;;;4993826;28;20974;-79
2021/06/21 07:31:20;;;;;;;11.23;9.40;;;32.80;99.90;;;;;;4994158;28;20510;-79
2021/06/21 07:33:48;;;;;;;8.80;7.90;;;33.10;99.90;;;;;;4994005;28;20862;-79
2021/06/21 07:36:14;;;;;;;13.00;9.40;;;33.50;99.90;;;;;;4994049;28;20451;-78
2021/06/21 07:38:41;;;;;;;10.10;9.30;;;33.80;99.90;;;;;;4993774;28;20565;-79
2021/06/21 07:41:09;;;;;;;10.40;9.40;;;34.00;99.90;;;;;;4993877;28;20559;-78
2021/06/21 07:43:35;;;;;;;9.67;8.80;;;34.10;99.90;;;;;;4993713;28;20479;-78
2021/06/21 07:46:03;;;;;;;10.03;9.13;;;34.20;99.90;;;;;;4993817;28;20455;-77
2021/06/21 07:48:29;;;;;;;10.57;9.60;;;34.30;99.90;;;;;;4993815;28;20452;-77
2021/06/21 07:50:57;;;;;;;10.53;9.70;;;34.20;99.90;;;;;;4994214;28;20864;-77
2021/06/21 07:53:24;;;;;;;11.53;9.30;;;34.20;99.90;;;;;;4993730;28;20451;-78
2021/06/21 07:55:50;;;;;;;11.47;10.37;;;34.20;99.90;;;;;;4993632;28;20456;-78
2021/06/21 07:58:17;;;;;;;9.60;8.80;;;34.10;99.90;;;;;;4993737;28;20474;-77
2021/06/21 08:00:43;;;;;;;10.90;9.97;;;34.00;99.90;;;;;;4993758;28;20543;-77
2021/06/21 08:03:11;;;;;;;10.33;8.80;;;34.10;99.90;;;;;;4993610;28;20461;-77
2021/06/21 08:05:38;;;;;;;8.77;8.10;;;34.10;99.90;;;;;;4993660;28;20455;-78
2021/06/21 08:08:07;;;;;;;11.70;8.80;;;33.80;99.90;;;;;;4993448;28;20456;-77
2021/06/21 08:10:34;;;;;;;9.07;8.37;;;33.80;99.90;;;;;;4993345;28;20507;-77
2021/06/21 08:13:00;;;;;;;11.80;9.40;;;33.80;99.90;;;;;;5010805;28;20451;-77
2021/06/21 08:15:27;;;;;;;10.00;7.80;;;33.60;99.90;;;;;;5013159;28;20925;-77
2021/06/21 08:17:54;;;;;;;9.30;8.40;;;33.60;99.90;;;;;;5012790;28;20576;-77
2021/06/21 08:20:21;;;;;;;8.20;7.50;;;33.60;99.90;;;;;;5013147;28;20853;-77
2021/06/21 08:22:47;;;;;;;10.60;8.57;;;33.60;99.90;;;;;;5013062;28;20458;-77
2021/06/21 08:25:15;;;;;;;7.80;7.10;;;33.60;99.90;;;;;;5012871;28;21055;-77
2021/06/21 08:27:42;;;;;;;8.07;7.43;;;33.60;99.90;;;;;;5017345;28;20477;-77
2021/06/21 08:30:10;;;;;;;9.33;7.00;;;33.60;99.90;;;;;;5017810;28;20446;-78
2021/06/21 08:32:38;;;;;;;6.83;6.23;;;33.60;99.90;;;;;;5017415;28;20486;-77
2021/06/21 08:35:06;;;;;;;8.00;6.40;;;33.50;99.90;;;;;;5017785;28;20577;-77
2021/06/21 08:37:33;;;;;;;6.07;5.50;;;33.40;99.90;;;;;;5017220;28;20450;-77
2021/06/21 08:39:59;;;;;;;7.07;5.10;;;33.40;99.90;;;;;;5017805;28;20454;-77
2021/06/21 08:42:27;;;;;;;7.20;4.93;;;33.30;99.90;;;;;;5017637;28;20482;-77
2021/06/21 08:44:54;;;;;;;4.83;4.13;;;33.10;99.90;;;;;;5017168;28;20504;-78
2021/06/21 08:47:23;;;;;;;6.70;4.70;;;33.00;99.90;;;;;;5016882;28;20450;-77
2021/06/21 08:49:50;;;;;;;5.67;5.10;;;32.90;99.90;;;;;;5016841;28;20877;-78
2021/06/21 08:52:18;;;;;;;7.37;5.67;;;32.80;99.90;;;;;;5016653;28;20490;-78
2021/06/21 08:54:46;;;;;;;6.00;5.50;;;32.80;99.90;;;;;;5016859;28;20457;-77
2021/06/21 08:57:13;;;;;;;5.90;5.40;;;32.80;99.90;;;;;;5016594;28;20454;-78
2021/06/21 08:59:41;;;;;;;6.33;5.47;;;32.60;99.90;;;;;;5016581;28;21006;-77
2021/06/21 09:02:08;;;;;;;5.17;4.60;;;32.50;99.90;;;;;;5016545;28;20450;-77
2021/06/21 09:04:38;;;;;;;7.03;4.70;;;32.50;99.90;;;;;;5016277;28;20488;-77
2021/06/21 09:07:16;;;;;;;5.37;4.77;;;32.40;99.90;;;;;;5016596;28;20454;-77
2021/06/21 09:09:42;;;;;;;5.17;3.30;;;32.30;99.90;;;;;;5016076;28;20852;-77
2021/06/21 09:12:09;;;;;;;7.50;4.00;;;32.20;99.90;;;;;;5005837;28;20525;-77
2021/06/21 09:14:37;;;;;;;5.97;3.40;;;32.10;99.90;;;;;;4996476;28;20451;-77
2021/06/21 09:17:07;;;;;;;4.70;3.67;;;32.10;99.90;;;;;;4996285;28;20895;-78
2021/06/21 09:19:46;;;;;;;7.40;3.63;;;32.10;99.90;;;;;;4996558;28;20515;-77
2021/06/21 09:22:31;;;;;;;3.70;3.40;;;32.10;99.90;;;;;;4996597;28;20462;-77
2021/06/21 09:24:59;;;;;;;7.47;3.53;;;32.10;99.90;;;;;;4996416;28;20451;-77
2021/06/21 09:27:27;;;;;;;4.90;2.60;;;32.00;99.90;;;;;;4996091;28;20555;-77
2021/06/21 09:29:54;;;;;;;3.33;2.77;;;31.90;99.90;;;;;;4996397;28;20532;-77
2021/06/21 09:32:39;;;;;;;4.37;2.60;;;31.90;99.90;;;;;;4996369;28;20497;-77
2021/06/21 09:35:07;;;;;;;2.30;1.90;;;31.80;99.90;;;;;;4996252;28;20486;-77
2021/06/21 09:37:44;;;;;;;3.10;2.37;;;31.70;99.90;;;;;;4995442;28;20464;-77
2021/06/21 09:40:24;;;;;;;4.83;2.60;;;31.70;99.90;;;;;;4995852;28;20540;-77
2021/06/21 09:42:50;;;;;;;3.90;2.50;;;31.70;99.90;;;;;;4995889;28;20950;-77
2021/06/21 09:45:18;;;;;;;2.37;2.10;;;31.80;99.90;;;;;;4995988;28;20495;-77
2021/06/21 09:47:46;;;;;;;4.80;2.87;;;31.90;99.90;;;;;;4995982;28;20478;-77
2021/06/21 09:50:15;;;;;;;2.50;2.17;;;31.90;99.90;;;;;;4995795;28;20494;-76
2021/06/21 09:52:44;;;;;;;2.53;2.33;;;31.90;99.90;;;;;;4995731;28;20806;-77
2021/06/21 09:55:29;;;;;;;2.60;2.23;;;32.00;99.90;;;;;;4995616;28;20559;-77
2021/06/21 09:58:19;;;;;;;2.27;1.80;;;32.10;99.90;;;;;;4995463;28;20485;-76
2021/06/21 10:00:47;;;;;;;2.00;1.80;;;32.30;99.90;;;;;;4999765;28;20779;-76
2021/06/21 10:03:17;;;;;;;3.27;1.80;;;32.40;99.90;;;;;;5010898;28;20898;-77
2021/06/21 10:05:47;;;;;;;2.30;1.77;;;32.40;99.90;;;;;;5003231;28;20514;-77
2021/06/21 10:08:16;;;;;;;5.63;2.30;;;32.40;99.90;;;;;;5003314;28;20446;-76
2021/06/21 10:10:44;;;;;;;1.80;1.70;;;32.40;99.90;;;;;;4996627;28;20509;-76
2021/06/21 10:13:11;;;;;;;5.33;2.23;;;32.30;99.90;;;;;;5001608;28;20516;-79
2021/06/21 10:15:38;;;;;;;3.80;2.33;;;32.10;99.90;;;;;;5005323;28;20447;-76
2021/06/21 10:18:07;;;;;;;5.37;2.10;;;32.20;99.90;;;;;;4988729;28;20877;-76
2021/06/21 10:20:35;;;;;;;2.27;1.77;;;32.30;99.90;;;;;;4984238;28;20539;-76
2021/06/21 10:23:05;;;;;;;4.57;2.20;;;32.40;99.90;;;;;;4992405;28;20443;-76
2021/06/21 10:25:32;;;;;;;3.40;2.27;;;32.40;99.90;;;;;;4987745;28;20525;-76
2021/06/21 10:28:01;;;;;;;4.90;3.07;;;32.50;99.90;;;;;;4978728;28;20463;-77
2021/06/21 10:30:29;;;;;;;3.57;1.90;;;32.40;99.90;;;;;;4987843;28;20932;-77
2021/06/21 10:32:56;;;;;;;4.70;2.60;;;32.30;99.90;;;;;;4976566;28;20985;-77
2021/06/21 10:35:29;;;;;;;2.47;2.03;;;32.20;99.90;;;;;;4989669;28;21000;-76
2021/06/21 10:37:59;;;;;;;3.90;2.10;;;32.10;99.90;;;;;;4978722;28;20462;-76
2021/06/21 10:40:26;;;;;;;4.87;2.80;;;32.00;99.90;;;;;;4987925;28;20563;-76
2021/06/21 10:42:53;;;;;;;9.07;1.93;;;32.10;99.90;;;;;;4985713;28;20447;-76
2021/06/21 10:45:21;;;;;;;3.23;2.27;;;32.10;99.90;;;;;;4980808;28;20453;-77
2021/06/21 10:47:49;;;;;;;6.00;2.53;;;32.10;99.90;;;;;;4992497;28;20509;-76
2021/06/21 10:50:25;;;;;;;4.00;2.37;;;32.00;99.90;;;;;;4993824;28;20459;-76
2021/06/21 10:53:01;;;;;;;3.90;2.40;;;32.00;99.90;;;;;;4994640;28;20450;-77
2021/06/21 10:55:42;;;;;;;5.00;2.40;;;31.90;99.90;;;;;;4994716;28;20450;-77
2021/06/21 10:58:34;;;;;;;4.50;2.90;;;31.80;99.90;;;;;;4994986;28;20482;-76
2021/06/21 11:01:20;;;;;;;5.77;2.93;;;31.90;99.90;;;;;;4989165;28;20459;-76
2021/06/21 11:03:47;;;;;;;4.70;2.73;;;31.90;99.90;;;;;;4994778;28;20464;-77
2021/06/21 11:06:41;;;;;;;4.10;2.30;;;31.90;99.90;;;;;;4994465;28;20537;-77
2021/06/21 11:09:11;;;;;;;5.53;3.00;;;32.10;99.90;;;;;;4994459;28;20487;-77
2021/06/21 11:11:44;;;;;;;7.80;2.77;;;32.20;99.90;;;;;;4988017;28;20811;-77
2021/06/21 11:14:12;;;;;;;3.67;3.17;;;32.20;99.90;;;;;;4978035;28;21184;-77
2021/06/21 11:16:40;;;;;;;5.13;2.30;;;32.10;99.90;;;;;;5001805;28;20476;-77
2021/06/21 11:19:29;;;;;;;3.03;2.70;;;32.10;99.90;;;;;;5013890;28;20504;-76
2021/06/21 11:21:58;;;;;;;3.53;3.10;;;32.00;99.90;;;;;;5013849;28;20885;-77
2021/06/21 11:24:49;;;;;;;4.03;3.50;;;32.00;99.90;;;;;;5013686;28;20508;-76
2021/06/21 11:27:17;;;;;;;8.67;3.00;;;31.90;99.90;;;;;;5006944;28;20992;-76
2021/06/21 11:29:45;;;;;;;3.33;2.40;;;31.80;99.90;;;;;;4994222;28;20447;-76
2021/06/21 11:32:13;;;;;;;2.97;2.73;;;31.70;99.90;;;;;;4993608;28;20482;-77
2021/06/21 11:34:46;;;;;;;4.93;2.37;;;31.60;99.90;;;;;;5002433;28;20505;-77
2021/06/21 11:37:34;;;;;;;5.13;2.90;;;31.60;99.90;;;;;;5001155;28;20530;-88
2021/06/21 11:40:27;;;;;;;2.80;2.47;;;31.60;99.90;;;;;;5013457;28;20485;-78
2021/06/21 11:43:11;;;;;;;2.97;2.67;;;31.60;99.90;;;;;;4994152;28;20477;-78
2021/06/21 11:45:52;;;;;;;5.73;2.43;;;31.60;99.90;;;;;;4993544;28;20451;-76
2021/06/21 11:48:23;;;;;;;7.13;2.80;;;31.60;99.90;;;;;;4993734;28;20549;-76
2021/06/21 11:50:51;;;;;;;4.20;2.70;;;31.60;99.90;;;;;;5007519;28;20937;-76
2021/06/21 11:53:17;;;;;;;4.23;2.90;;;31.60;99.90;;;;;;5009841;28;21008;-76
2021/06/21 11:55:46;;;;;;;2.77;2.50;;;31.70;99.90;;;;;;4996412;28;20442;-76
2021/06/21 11:58:12;;;;;;;3.10;2.90;;;31.70;99.90;;;;;;5013051;28;20484;-77
2021/06/21 12:00:39;;;;;;;5.73;2.63;;;31.60;99.90;;;;;;5012795;28;20544;-77
2021/06/21 12:03:08;;;;;;;3.73;2.50;;;31.60;99.90;;;;;;5013064;28;20450;-76
2021/06/21 12:05:35;;;;;;;3.93;2.53;;;31.60;99.90;;;;;;5012976;28;20450;-76
2021/06/21 12:08:12;;;;;;;5.90;2.87;;;31.60;99.90;;;;;;4997538;28;20475;-77
2021/06/21 12:10:39;;;;;;;8.47;2.70;;;31.60;99.90;;;;;;4993423;28;20497;-76
2021/06/21 12:13:07;;;;;;;3.17;2.30;;;31.70;99.90;;;;;;5011236;28;20451;-76
2021/06/21 12:15:35;;;;;;;3.23;2.93;;;31.70;99.90;;;;;;5013071;28;20548;-76
2021/06/21 12:18:02;;;;;;;5.30;3.10;;;31.80;99.90;;;;;;5012637;28;20547;-76
2021/06/21 12:20:32;;;;;;;2.80;2.37;;;31.70;99.90;;;;;;5009427;28;20553;-76
2021/06/21 12:23:00;;;;;;;6.37;2.33;;;31.70;99.90;;;;;;4999153;28;20454;-76
2021/06/21 12:25:30;;;;;;;7.00;2.83;;;31.70;99.90;;;;;;5003044;28;20489;-76
2021/06/21 12:28:12;;;;;;;4.03;2.63;;;31.70;99.90;;;;;;5002242;28;20938;-75
2021/06/21 12:30:41;;;;;;;3.40;2.50;;;31.80;99.90;;;;;;5002834;28;20446;-76
2021/06/21 12:33:29;;;;;;;3.10;2.53;;;32.10;99.90;;;;;;5001216;28;20478;-76
2021/06/21 12:36:18;;;;;;;5.37;2.63;;;32.10;99.90;;;;;;5002261;28;20459;-76
2021/06/21 12:38:55;;;;;;;4.27;2.90;;;32.10;99.90;;;;;;5001273;28;20458;-76
2021/06/21 12:41:24;;;;;;;3.67;2.77;;;32.10;99.90;;;;;;5006230;28;20508;-75
2021/06/21 12:43:58;;;;;;;7.67;2.83;;;32.20;99.90;;;;;;5012852;28;20524;-75
2021/06/21 12:46:27;;;;;;;3.90;3.50;;;32.30;99.90;;;;;;5012898;28;21028;-75